Aviation Digital Data Service (ADDS)

Output produced by METARs form (1455 UTC 24 August 2019)
found at http://www.aviationweather.gov/metar/data/
 
METAR text: LTAC 241420Z 05015KT 9999 FEW040 31/06 Q1017 NOSIG RMK RWY21L 03016KT RWY03L 03013KT 350V050 RWY21R 04015KT 010V070
Conditions at: LTAC (ANKARA/ESENBOGA , TR) observed 1420 UTC 24 August 2019
Temperature: 31.0°C (88°F)
Dewpoint: 6.0°C (43°F) [RH = 21%]
Pressure (altimeter): 30.03 inches Hg (1017.0 mb)
Winds: from the NE (50 degrees) at 17 MPH (15 knots; 7.7 m/s)
Visibility: 6 or more miles (10+ km)
Ceiling: at least 12,000 feet AGL
Clouds: few clouds at 4000 feet AGL
Weather: no significant weather observed at this time

METAR text: LTAC 241350Z 04014KT 9999 FEW040 31/06 Q1017 NOSIG RMK RWY21L 03015KT RWY03L 03014KT RWY21R 04016KT
Conditions at: LTAC (ANKARA/ESENBOGA , TR) observed 1350 UTC 24 August 2019
Temperature: 31.0°C (88°F)
Dewpoint: 6.0°C (43°F) [RH = 21%]
Pressure (altimeter): 30.03 inches Hg (1017.0 mb)
Winds: from the NE (40 degrees) at 16 MPH (14 knots; 7.2 m/s)
Visibility: 6 or more miles (10+ km)
Ceiling: at least 12,000 feet AGL
Clouds: few clouds at 4000 feet AGL
Weather: no significant weather observed at this time

METAR text: LTAC 241320Z 05014KT 010V080 9999 FEW040 31/06 Q1017 NOSIG RMK RWY21L 03015KT 360V060 RWY03L 06012KT 020V090 RWY21R 04015KT
Conditions at: LTAC (ANKARA/ESENBOGA , TR) observed 1320 UTC 24 August 2019
Temperature: 31.0°C (88°F)
Dewpoint: 6.0°C (43°F) [RH = 21%]
Pressure (altimeter): 30.03 inches Hg (1017.0 mb)
Winds: from the NE (50 degrees) at 16 MPH (14 knots; 7.2 m/s)
Visibility: 6 or more miles (10+ km)
Ceiling: at least 12,000 feet AGL
Clouds: few clouds at 4000 feet AGL
Weather: no significant weather observed at this time

METAR text: LTAC 241250Z 05011KT 9999 FEW040 31/06 Q1017 NOSIG RMK RWY21L 04014G25KT 350V060 RWY03L 05010KT 010V090 RWY21R 04015KT 010V070
Conditions at: LTAC (ANKARA/ESENBOGA , TR) observed 1250 UTC 24 August 2019
Temperature: 31.0°C (88°F)
Dewpoint: 6.0°C (43°F) [RH = 21%]
Pressure (altimeter): 30.03 inches Hg (1017.0 mb)
Winds: from the NE (50 degrees) at 13 MPH (11 knots; 5.7 m/s)
Visibility: 6 or more miles (10+ km)
Ceiling: at least 12,000 feet AGL
Clouds: few clouds at 4000 feet AGL
Weather: no significant weather observed at this time

METAR text: LTAC 241220Z 02012KT 350V050 9999 FEW040 31/06 Q1017 NOSIG RMK RWY21L 03011KT 340V080 RWY03L 34008KT 310V010 RWY21R 03011KT 350V060
Conditions at: LTAC (ANKARA/ESENBOGA , TR) observed 1220 UTC 24 August 2019
Temperature: 31.0°C (88°F)
Dewpoint: 6.0°C (43°F) [RH = 21%]
Pressure (altimeter): 30.03 inches Hg (1017.0 mb)
Winds: from the NNE (20 degrees) at 14 MPH (12 knots; 6.2 m/s)
Visibility: 6 or more miles (10+ km)
Ceiling: at least 12,000 feet AGL
Clouds: few clouds at 4000 feet AGL
Weather: no significant weather observed at this time

METAR text: LTAC 241150Z 04013KT 010V070 9999 FEW040 31/05 Q1018 NOSIG RMK RWY21L 06009KT 350V080 RWY03L 05012KT 010V080 RWY21R 07011KT 040V100
Conditions at: LTAC (ANKARA/ESENBOGA , TR) observed 1150 UTC 24 August 2019
Temperature: 31.0°C (88°F)
Dewpoint: 5.0°C (41°F) [RH = 19%]
Pressure (altimeter): 30.06 inches Hg (1018.0 mb)
Winds: from the NE (40 degrees) at 15 MPH (13 knots; 6.7 m/s)
Visibility: 6 or more miles (10+ km)
Ceiling: at least 12,000 feet AGL
Clouds: few clouds at 4000 feet AGL
Weather: no significant weather observed at this time

METAR text: LTAC 241120Z 04014KT 010V070 9999 FEW040 31/06 Q1018 NOSIG RMK RWY21L 03014KT 360V070 RWY03L 04013KT 360V070 RWY21R 06014KT
Conditions at: LTAC (ANKARA/ESENBOGA , TR) observed 1120 UTC 24 August 2019
Temperature: 31.0°C (88°F)
Dewpoint: 6.0°C (43°F) [RH = 21%]
Pressure (altimeter): 30.06 inches Hg (1018.0 mb)
Winds: from the NE (40 degrees) at 16 MPH (14 knots; 7.2 m/s)
Visibility: 6 or more miles (10+ km)
Ceiling: at least 12,000 feet AGL
Clouds: few clouds at 4000 feet AGL
Weather: no significant weather observed at this time

METAR text: LTAC 241050Z 05012KT 020V100 9999 FEW040 31/07 Q1018 NOSIG RMK RWY21L 02014KT RWY03L 05013KT 020V080 RWY21R 06016KT 030V090
Conditions at: LTAC (ANKARA/ESENBOGA , TR) observed 1050 UTC 24 August 2019
Temperature: 31.0°C (88°F)
Dewpoint: 7.0°C (45°F) [RH = 22%]
Pressure (altimeter): 30.06 inches Hg (1018.0 mb)
Winds: from the NE (50 degrees) at 14 MPH (12 knots; 6.2 m/s)
Visibility: 6 or more miles (10+ km)
Ceiling: at least 12,000 feet AGL
Clouds: few clouds at 4000 feet AGL
Weather: no significant weather observed at this time

METAR text: LTAC 241020Z 05011G22KT CAVOK 30/06 Q1018 NOSIG RMK RWY21L 05013KT 020V080 RWY03L 06014KT 020V090 RWY21R 07014KT
Conditions at: LTAC (ANKARA/ESENBOGA , TR) observed 1020 UTC 24 August 2019
Temperature: 30.0°C (86°F)
Dewpoint: 6.0°C (43°F) [RH = 22%]
Pressure (altimeter): 30.06 inches Hg (1018.0 mb)
Winds: from the NE (50 degrees) at 13 MPH (11 knots; 5.7 m/s)
gusting to 25 MPH (22 knots; 11.3 m/s)
Visibility: 6 or more miles (10+ km)
Ceiling: ceiling and visibility are OK
Clouds: unknown
Weather: no significant weather observed at this time

METAR text: LTAC 240950Z 06014KT 030V090 9999 FEW040 29/06 Q1018 NOSIG RMK RWY21L 04015KT RWY03L 06012KT 020V100 RWY21R 06015KT 010V080
Conditions at: LTAC (ANKARA/ESENBOGA , TR) observed 0950 UTC 24 August 2019
Temperature: 29.0°C (84°F)
Dewpoint: 6.0°C (43°F) [RH = 23%]
Pressure (altimeter): 30.06 inches Hg (1018.0 mb)
Winds: from the ENE (60 degrees) at 16 MPH (14 knots; 7.2 m/s)
Visibility: 6 or more miles (10+ km)
Ceiling: at least 12,000 feet AGL
Clouds: few clouds at 4000 feet AGL
Weather: no significant weather observed at this time

METAR text: LTAC 240920Z 05011KT 010V080 9999 FEW040 29/06 Q1018 NOSIG RMK RWY21L 04014KT 360V060 RWY03L 05013KT RWY21R 05018KT
Conditions at: LTAC (ANKARA/ESENBOGA , TR) observed 0920 UTC 24 August 2019
Temperature: 29.0°C (84°F)
Dewpoint: 6.0°C (43°F) [RH = 23%]
Pressure (altimeter): 30.06 inches Hg (1018.0 mb)
Winds: from the NE (50 degrees) at 13 MPH (11 knots; 5.7 m/s)
Visibility: 6 or more miles (10+ km)
Ceiling: at least 12,000 feet AGL
Clouds: few clouds at 4000 feet AGL
Weather: no significant weather observed at this time

METAR text: LTAC 240850Z 03011G22KT 360V070 CAVOK 29/06 Q1019 NOSIG RMK RWY21L 02012KT 350V070 RWY03L 03012KT RWY21R 06012KT
Conditions at: LTAC (ANKARA/ESENBOGA , TR) observed 0850 UTC 24 August 2019
Temperature: 29.0°C (84°F)
Dewpoint: 6.0°C (43°F) [RH = 23%]
Pressure (altimeter): 30.09 inches Hg (1019.0 mb)
Winds: from the NNE (30 degrees) at 13 MPH (11 knots; 5.7 m/s)
gusting to 25 MPH (22 knots; 11.3 m/s)
Visibility: 6 or more miles (10+ km)
Ceiling: ceiling and visibility are OK
Clouds: unknown
Weather: no significant weather observed at this time

METAR text: LTAC 240820Z 04009KT 340V070 CAVOK 28/06 Q1019 NOSIG RMK RWY21L 01010G20KT 310V090 RWY03L 03009KT 350V090 RWY21R VRB12KT
Conditions at: LTAC (ANKARA/ESENBOGA , TR) observed 0820 UTC 24 August 2019
Temperature: 28.0°C (82°F)
Dewpoint: 6.0°C (43°F) [RH = 25%]
Pressure (altimeter): 30.09 inches Hg (1019.0 mb)
Winds: from the NE (40 degrees) at 10 MPH (9 knots; 4.6 m/s)
Visibility: 6 or more miles (10+ km)
Ceiling: ceiling and visibility are OK
Clouds: unknown
Weather: no significant weather observed at this time

METAR text: LTAC 240750Z 05011KT 360V080 CAVOK 27/06 Q1019 NOSIG RMK RWY21L 05013KT RWY03L 05011KT 030V090 RWY21R 06012KT 030V090
Conditions at: LTAC (ANKARA/ESENBOGA , TR) observed 0750 UTC 24 August 2019
Temperature: 27.0°C (81°F)
Dewpoint: 6.0°C (43°F) [RH = 26%]
Pressure (altimeter): 30.09 inches Hg (1019.0 mb)
Winds: from the NE (50 degrees) at 13 MPH (11 knots; 5.7 m/s)
Visibility: 6 or more miles (10+ km)
Ceiling: ceiling and visibility are OK
Clouds: unknown
Weather: no significant weather observed at this time

METAR text: LTAC 240720Z 05011KT CAVOK 27/07 Q1019 NOSIG RMK RWY21L 04010KT RWY03L 05010KT 020V090 RWY21R 06011KT
Conditions at: LTAC (ANKARA/ESENBOGA , TR) observed 0720 UTC 24 August 2019
Temperature: 27.0°C (81°F)
Dewpoint: 7.0°C (45°F) [RH = 28%]
Pressure (altimeter): 30.09 inches Hg (1019.0 mb)
Winds: from the NE (50 degrees) at 13 MPH (11 knots; 5.7 m/s)
Visibility: 6 or more miles (10+ km)
Ceiling: ceiling and visibility are OK
Clouds: unknown
Weather: no significant weather observed at this time

METAR text: LTAC 240650Z 04008KT 340V090 CAVOK 26/07 Q1019 NOSIG RMK RWY21L 04010KT RWY03L 02005KT 340V060 RWY21R 05009KT 020V080
Conditions at: LTAC (ANKARA/ESENBOGA , TR) observed 0650 UTC 24 August 2019
Temperature: 26.0°C (79°F)
Dewpoint: 7.0°C (45°F) [RH = 30%]
Pressure (altimeter): 30.09 inches Hg (1019.0 mb)
Winds: from the NE (40 degrees) at 9 MPH (8 knots; 4.1 m/s)
Visibility: 6 or more miles (10+ km)
Ceiling: ceiling and visibility are OK
Clouds: unknown
Weather: no significant weather observed at this time

METAR text: LTAC 240620Z 36004KT 300V040 CAVOK 24/08 Q1020 NOSIG RMK RWY21L VRB03KT RWY03L 36003KT 270V070 RWY21R 00000KT
Conditions at: LTAC (ANKARA/ESENBOGA , TR) observed 0620 UTC 24 August 2019
Temperature: 24.0°C (75°F)
Dewpoint: 8.0°C (46°F) [RH = 36%]
Pressure (altimeter): 30.12 inches Hg (1020.0 mb)
Winds: from the N (360 degrees) at 5 MPH (4 knots; 2.1 m/s)
Visibility: 6 or more miles (10+ km)
Ceiling: ceiling and visibility are OK
Clouds: unknown
Weather: no significant weather observed at this time

METAR text: LTAC 240550Z 24003KT 170V340 CAVOK 21/09 Q1020 NOSIG RMK RWY21L VRB02KT RWY03L 23003KT 190V270 RWY21R 00000KT
Conditions at: LTAC (ANKARA/ESENBOGA , TR) observed 0550 UTC 24 August 2019
Temperature: 21.0°C (70°F)
Dewpoint: 9.0°C (48°F) [RH = 46%]
Pressure (altimeter): 30.12 inches Hg (1020.0 mb)
Winds: from the WSW (240 degrees) at 3 MPH (3 knots; 1.5 m/s)
Visibility: 6 or more miles (10+ km)
Ceiling: ceiling and visibility are OK
Clouds: unknown
Weather: no significant weather observed at this time

METAR text: LTAC 240520Z 25004KT CAVOK 19/10 Q1020 NOSIG RMK RWY21L 34004KT 300V010 RWY03L 24003KT RWY21R 31003KT 230V010
Conditions at: LTAC (ANKARA/ESENBOGA , TR) observed 0520 UTC 24 August 2019
Temperature: 19.0°C (66°F)
Dewpoint: 10.0°C (50°F) [RH = 56%]
Pressure (altimeter): 30.12 inches Hg (1020.0 mb)
Winds: from the WSW (250 degrees) at 5 MPH (4 knots; 2.1 m/s)
Visibility: 6 or more miles (10+ km)
Ceiling: ceiling and visibility are OK
Clouds: unknown
Weather: no significant weather observed at this time

METAR text: LTAC 240450Z VRB01KT CAVOK 19/10 Q1020 NOSIG RMK RWY21L 36003KT 320V030 RWY03L 00000KT RWY21R 10003KT 020V110
Conditions at: LTAC (ANKARA/ESENBOGA , TR) observed 0450 UTC 24 August 2019
Temperature: 19.0°C (66°F)
Dewpoint: 10.0°C (50°F) [RH = 56%]
Pressure (altimeter): 30.12 inches Hg (1020.0 mb)
Winds: variable direction winds at 1 MPH (1 knots; 0.5 m/s)
Visibility: 6 or more miles (10+ km)
Ceiling: ceiling and visibility are OK
Clouds: unknown
Weather: no significant weather observed at this time

METAR text: LTAC 240420Z 34001KT CAVOK 16/10 Q1020 NOSIG RMK RWY21L VRB01KT RWY03L VRB01KT RWY21R 00000KT
Conditions at: LTAC (ANKARA/ESENBOGA , TR) observed 0420 UTC 24 August 2019
Temperature: 16.0°C (61°F)
Dewpoint: 10.0°C (50°F) [RH = 68%]
Pressure (altimeter): 30.12 inches Hg (1020.0 mb)
Winds: from the NNW (340 degrees) at 1 MPH (1 knots; 0.5 m/s)
Visibility: 6 or more miles (10+ km)
Ceiling: ceiling and visibility are OK
Clouds: unknown
Weather: no significant weather observed at this time

METAR text: LTAC 240350Z VRB02KT CAVOK 15/09 Q1020 NOSIG RMK RWY21L VRB02KT RWY03L VRB01KT RWY21R 00000KT
Conditions at: LTAC (ANKARA/ESENBOGA , TR) observed 0350 UTC 24 August 2019
Temperature: 15.0°C (59°F)
Dewpoint: 9.0°C (48°F) [RH = 67%]
Pressure (altimeter): 30.12 inches Hg (1020.0 mb)
Winds: variable direction winds at 2 MPH (2 knots; 1.0 m/s)
Visibility: 6 or more miles (10+ km)
Ceiling: ceiling and visibility are OK
Clouds: unknown
Weather: no significant weather observed at this time

METAR text: LTAC 240320Z VRB02KT CAVOK 15/09 Q1020 NOSIG RMK RWY21L VRB02KT RWY03L 00000KT RWY21R 00000KT
Conditions at: LTAC (ANKARA/ESENBOGA , TR) observed 0320 UTC 24 August 2019
Temperature: 15.0°C (59°F)
Dewpoint: 9.0°C (48°F) [RH = 67%]
Pressure (altimeter): 30.12 inches Hg (1020.0 mb)
Winds: variable direction winds at 2 MPH (2 knots; 1.0 m/s)
Visibility: 6 or more miles (10+ km)
Ceiling: ceiling and visibility are OK
Clouds: unknown
Weather: no significant weather observed at this time

METAR text: LTAC 240250Z VRB02KT CAVOK 16/09 Q1019 NOSIG RMK RWY21L VRB02KT RWY03L VRB02KT RWY21R 00000KT
Conditions at: LTAC (ANKARA/ESENBOGA , TR) observed 0250 UTC 24 August 2019
Temperature: 16.0°C (61°F)
Dewpoint: 9.0°C (48°F) [RH = 63%]
Pressure (altimeter): 30.09 inches Hg (1019.0 mb)
Winds: variable direction winds at 2 MPH (2 knots; 1.0 m/s)
Visibility: 6 or more miles (10+ km)
Ceiling: ceiling and visibility are OK
Clouds: unknown
Weather: no significant weather observed at this time

METAR text: LTAC 240220Z 19003KT CAVOK 16/09 Q1019 NOSIG RMK RWY21L 19004KT 150V230 RWY03L 20003KT RWY21R 22001KT
Conditions at: LTAC (ANKARA/ESENBOGA , TR) observed 0220 UTC 24 August 2019
Temperature: 16.0°C (61°F)
Dewpoint: 9.0°C (48°F) [RH = 63%]
Pressure (altimeter): 30.09 inches Hg (1019.0 mb)
Winds: from the S (190 degrees) at 3 MPH (3 knots; 1.5 m/s)
Visibility: 6 or more miles (10+ km)
Ceiling: ceiling and visibility are OK
Clouds: unknown
Weather: no significant weather observed at this time

METAR text: LTAC 240150Z 21004KT 160V290 CAVOK 16/09 Q1019 NOSIG RMK RWY21L VRB03KT RWY03L VRB02KT RWY21R 00000KT
Conditions at: LTAC (ANKARA/ESENBOGA , TR) observed 0150 UTC 24 August 2019
Temperature: 16.0°C (61°F)
Dewpoint: 9.0°C (48°F) [RH = 63%]
Pressure (altimeter): 30.09 inches Hg (1019.0 mb)
Winds: from the SSW (210 degrees) at 5 MPH (4 knots; 2.1 m/s)
Visibility: 6 or more miles (10+ km)
Ceiling: ceiling and visibility are OK
Clouds: unknown
Weather: no significant weather observed at this time

METAR text: LTAC 240120Z 16005KT 110V190 CAVOK 16/09 Q1019 NOSIG RMK RWY21L 34003KT 280V060 RWY03L VRB03KT RWY21R 00000KT
Conditions at: LTAC (ANKARA/ESENBOGA , TR) observed 0120 UTC 24 August 2019
Temperature: 16.0°C (61°F)
Dewpoint: 9.0°C (48°F) [RH = 63%]
Pressure (altimeter): 30.09 inches Hg (1019.0 mb)
Winds: from the SSE (160 degrees) at 6 MPH (5 knots; 2.6 m/s)
Visibility: 6 or more miles (10+ km)
Ceiling: ceiling and visibility are OK
Clouds: unknown
Weather: no significant weather observed at this time

METAR text: LTAC 240050Z 36005KT CAVOK 18/09 Q1019 NOSIG RMK RWY21L 21003KT 170V250 RWY03L 35003KT RWY21R 00000KT
Conditions at: LTAC (ANKARA/ESENBOGA , TR) observed 0050 UTC 24 August 2019
Temperature: 18.0°C (64°F)
Dewpoint: 9.0°C (48°F) [RH = 56%]
Pressure (altimeter): 30.09 inches Hg (1019.0 mb)
Winds: from the N (360 degrees) at 6 MPH (5 knots; 2.6 m/s)
Visibility: 6 or more miles (10+ km)
Ceiling: ceiling and visibility are OK
Clouds: unknown
Weather: no significant weather observed at this time

METAR text: LTAC 240020Z 02004KT CAVOK 19/08 Q1019 NOSIG RMK RWY21L 13003KT RWY03L 01002KT RWY21R 00000KT
Conditions at: LTAC (ANKARA/ESENBOGA , TR) observed 0020 UTC 24 August 2019
Temperature: 19.0°C (66°F)
Dewpoint: 8.0°C (46°F) [RH = 49%]
Pressure (altimeter): 30.09 inches Hg (1019.0 mb)
Winds: from the NNE (20 degrees) at 5 MPH (4 knots; 2.1 m/s)
Visibility: 6 or more miles (10+ km)
Ceiling: ceiling and visibility are OK
Clouds: unknown
Weather: no significant weather observed at this time

METAR text: LTAC 232350Z 35008KT CAVOK 19/09 Q1018 NOSIG RMK RWY21L 10003KT 340V140 RWY03L 34006KT RWY21R 02004KT 350V110
Conditions at: LTAC (ANKARA/ESENBOGA , TR) observed 2350 UTC 23 August 2019
Temperature: 19.0°C (66°F)
Dewpoint: 9.0°C (48°F) [RH = 52%]
Pressure (altimeter): 30.06 inches Hg (1018.0 mb)
Winds: from the N (350 degrees) at 9 MPH (8 knots; 4.1 m/s)
Visibility: 6 or more miles (10+ km)
Ceiling: ceiling and visibility are OK
Clouds: unknown
Weather: no significant weather observed at this time

METAR text: LTAC 232320Z 02005KT CAVOK 19/10 Q1019 NOSIG RMK RWY21L VRB02KT RWY03L 01005KT 350V050 RWY21R VRB01KT
Conditions at: LTAC (ANKARA/ESENBOGA , TR) observed 2320 UTC 23 August 2019
Temperature: 19.0°C (66°F)
Dewpoint: 10.0°C (50°F) [RH = 56%]
Pressure (altimeter): 30.09 inches Hg (1019.0 mb)
Winds: from the NNE (20 degrees) at 6 MPH (5 knots; 2.6 m/s)
Visibility: 6 or more miles (10+ km)
Ceiling: ceiling and visibility are OK
Clouds: unknown
Weather: no significant weather observed at this time

METAR text: LTAC 232250Z 34005KT 310V020 CAVOK 19/11 Q1019 NOSIG RMK RWY21L 02008KT RWY03L 33003KT 250V360 RWY21R 05006KT
Conditions at: LTAC (ANKARA/ESENBOGA , TR) observed 2250 UTC 23 August 2019
Temperature: 19.0°C (66°F)
Dewpoint: 11.0°C (52°F) [RH = 60%]
Pressure (altimeter): 30.09 inches Hg (1019.0 mb)
Winds: from the NNW (340 degrees) at 6 MPH (5 knots; 2.6 m/s)
Visibility: 6 or more miles (10+ km)
Ceiling: ceiling and visibility are OK
Clouds: unknown
Weather: no significant weather observed at this time

METAR text: LTAC 232220Z 05008KT CAVOK 21/10 Q1019 NOSIG RMK RWY21L 02011KT RWY03L 04006KT 350V070 RWY21R 03010KT
Conditions at: LTAC (ANKARA/ESENBOGA , TR) observed 2220 UTC 23 August 2019
Temperature: 21.0°C (70°F)
Dewpoint: 10.0°C (50°F) [RH = 49%]
Pressure (altimeter): 30.09 inches Hg (1019.0 mb)
Winds: from the NE (50 degrees) at 9 MPH (8 knots; 4.1 m/s)
Visibility: 6 or more miles (10+ km)
Ceiling: ceiling and visibility are OK
Clouds: unknown
Weather: no significant weather observed at this time

METAR text: LTAC 232150Z 02011KT CAVOK 21/11 Q1019 NOSIG RMK RWY21L 02010KT RWY03L 03009KT RWY21R 04011KT
Conditions at: LTAC (ANKARA/ESENBOGA , TR) observed 2150 UTC 23 August 2019
Temperature: 21.0°C (70°F)
Dewpoint: 11.0°C (52°F) [RH = 53%]
Pressure (altimeter): 30.09 inches Hg (1019.0 mb)
Winds: from the NNE (20 degrees) at 13 MPH (11 knots; 5.7 m/s)
Visibility: 6 or more miles (10+ km)
Ceiling: ceiling and visibility are OK
Clouds: unknown
Weather: no significant weather observed at this time

METAR text: LTAC 232120Z 02013KT CAVOK 21/11 Q1019 BECMG VRB02KT
Conditions at: LTAC (ANKARA/ESENBOGA , TR) observed 2120 UTC 23 August 2019
Temperature: 21.0°C (70°F)
Dewpoint: 11.0°C (52°F) [RH = 53%]
Pressure (altimeter): 30.09 inches Hg (1019.0 mb)
Winds: from the NNE (20 degrees) at 15 MPH (13 knots; 6.7 m/s)
Visibility: 6 or more miles (10+ km)
Ceiling: ceiling and visibility are OK
Clouds: unknown
Weather: no significant weather observed at this time

METAR text: LTAC 232050Z 01010KT CAVOK 21/12 Q1019 NOSIG RMK RWY21L 36013KT RWY03L 01008KT RWY21R 02013KT
Conditions at: LTAC (ANKARA/ESENBOGA , TR) observed 2050 UTC 23 August 2019
Temperature: 21.0°C (70°F)
Dewpoint: 12.0°C (54°F) [RH = 56%]
Pressure (altimeter): 30.09 inches Hg (1019.0 mb)
Winds: from the N (10 degrees) at 12 MPH (10 knots; 5.1 m/s)
Visibility: 6 or more miles (10+ km)
Ceiling: ceiling and visibility are OK
Clouds: unknown
Weather: no significant weather observed at this time

METAR text: LTAC 232020Z 03014KT CAVOK 22/12 Q1019 BECMG VRB02KT
Conditions at: LTAC (ANKARA/ESENBOGA , TR) observed 2020 UTC 23 August 2019
Temperature: 22.0°C (72°F)
Dewpoint: 12.0°C (54°F) [RH = 53%]
Pressure (altimeter): 30.09 inches Hg (1019.0 mb)
Winds: from the NNE (30 degrees) at 16 MPH (14 knots; 7.2 m/s)
Visibility: 6 or more miles (10+ km)
Ceiling: ceiling and visibility are OK
Clouds: unknown
Weather: no significant weather observed at this time

METAR text: LTAC 231950Z 01014KT 9999 FEW040 23/12 Q1018 BECMG VRB02KT
Conditions at: LTAC (ANKARA/ESENBOGA , TR) observed 1950 UTC 23 August 2019
Temperature: 23.0°C (73°F)
Dewpoint: 12.0°C (54°F) [RH = 50%]
Pressure (altimeter): 30.06 inches Hg (1018.0 mb)
Winds: from the N (10 degrees) at 16 MPH (14 knots; 7.2 m/s)
Visibility: 6 or more miles (10+ km)
Ceiling: at least 12,000 feet AGL
Clouds: few clouds at 4000 feet AGL
Weather: no significant weather observed at this time

METAR text: LTAC 231920Z 02012KT 9999 FEW040 22/13 Q1018 BECMG VRB02KT
Conditions at: LTAC (ANKARA/ESENBOGA , TR) observed 1920 UTC 23 August 2019
Temperature: 22.0°C (72°F)
Dewpoint: 13.0°C (55°F) [RH = 57%]
Pressure (altimeter): 30.06 inches Hg (1018.0 mb)
Winds: from the NNE (20 degrees) at 14 MPH (12 knots; 6.2 m/s)
Visibility: 6 or more miles (10+ km)
Ceiling: at least 12,000 feet AGL
Clouds: few clouds at 4000 feet AGL
Weather: no significant weather observed at this time

METAR text: LTAC 231850Z 03011KT 9999 FEW040 23/13 Q1018 NOSIG RMK RWY21L 02009KT RWY03L 03009KT RWY21R 03008KT
Conditions at: LTAC (ANKARA/ESENBOGA , TR) observed 1850 UTC 23 August 2019
Temperature: 23.0°C (73°F)
Dewpoint: 13.0°C (55°F) [RH = 53%]
Pressure (altimeter): 30.06 inches Hg (1018.0 mb)
Winds: from the NNE (30 degrees) at 13 MPH (11 knots; 5.7 m/s)
Visibility: 6 or more miles (10+ km)
Ceiling: at least 12,000 feet AGL
Clouds: few clouds at 4000 feet AGL
Weather: no significant weather observed at this time

METAR text: LTAC 231820Z 03009KT 9999 SCT040 23/12 Q1018 NOSIG RMK RWY21L 01010KT RWY03L 03007KT RWY21R 02011KT
Conditions at: LTAC (ANKARA/ESENBOGA , TR) observed 1820 UTC 23 August 2019
Temperature: 23.0°C (73°F)
Dewpoint: 12.0°C (54°F) [RH = 50%]
Pressure (altimeter): 30.06 inches Hg (1018.0 mb)
Winds: from the NNE (30 degrees) at 10 MPH (9 knots; 4.6 m/s)
Visibility: 6 or more miles (10+ km)
Ceiling: at least 12,000 feet AGL
Clouds: scattered clouds at 4000 feet AGL
Weather: no significant weather observed at this time

METAR text: LTAC 231750Z 03005KT 9999 SCT040 23/13 Q1018 NOSIG RMK RWY21L 01007KT RWY03L 01006KT RWY21R 02006KT
Conditions at: LTAC (ANKARA/ESENBOGA , TR) observed 1750 UTC 23 August 2019
Temperature: 23.0°C (73°F)
Dewpoint: 13.0°C (55°F) [RH = 53%]
Pressure (altimeter): 30.06 inches Hg (1018.0 mb)
Winds: from the NNE (30 degrees) at 6 MPH (5 knots; 2.6 m/s)
Visibility: 6 or more miles (10+ km)
Ceiling: at least 12,000 feet AGL
Clouds: scattered clouds at 4000 feet AGL
Weather: no significant weather observed at this time

METAR text: LTAC 231720Z 32005KT 290V350 9999 SCT040 24/14 Q1018 NOSIG RMK RWY21L 36006KT 320V020 RWY03L VRB02KT RWY21R 35005KT 310V020
Conditions at: LTAC (ANKARA/ESENBOGA , TR) observed 1720 UTC 23 August 2019
Temperature: 24.0°C (75°F)
Dewpoint: 14.0°C (57°F) [RH = 54%]
Pressure (altimeter): 30.06 inches Hg (1018.0 mb)
Winds: from the NW (320 degrees) at 6 MPH (5 knots; 2.6 m/s)
Visibility: 6 or more miles (10+ km)
Ceiling: at least 12,000 feet AGL
Clouds: scattered clouds at 4000 feet AGL
Weather: no significant weather observed at this time

METAR text: LTAC 231650Z 07007KT 040V100 9999 SCT040 25/12 Q1018 NOSIG RMK RWY21L 05008KT RWY03L 02003KT 320V070 RWY21R 07007KT
Conditions at: LTAC (ANKARA/ESENBOGA , TR) observed 1650 UTC 23 August 2019
Temperature: 25.0°C (77°F)
Dewpoint: 12.0°C (54°F) [RH = 44%]
Pressure (altimeter): 30.06 inches Hg (1018.0 mb)
Winds: from the ENE (70 degrees) at 8 MPH (7 knots; 3.6 m/s)
Visibility: 6 or more miles (10+ km)
Ceiling: at least 12,000 feet AGL
Clouds: scattered clouds at 4000 feet AGL
Weather: no significant weather observed at this time

METAR text: LTAC 231620Z 34005KT 9999 SCT040 25/14 Q1018 NOSIG RMK RWY21L 03003KT 360V060 RWY03L 35003KT 330V030 RWY21R VRB01KT
Conditions at: LTAC (ANKARA/ESENBOGA , TR) observed 1620 UTC 23 August 2019
Temperature: 25.0°C (77°F)
Dewpoint: 14.0°C (57°F) [RH = 50%]
Pressure (altimeter): 30.06 inches Hg (1018.0 mb)
Winds: from the NNW (340 degrees) at 6 MPH (5 knots; 2.6 m/s)
Visibility: 6 or more miles (10+ km)
Ceiling: at least 12,000 feet AGL
Clouds: scattered clouds at 4000 feet AGL
Weather: no significant weather observed at this time

METAR text: LTAC 231550Z 01006KT 340V040 9999 SCT040 25/12 Q1017 NOSIG RMK RWY21L 35004KT RWY03L 01004KT 340V040 RWY21R 01004KT 340V040
Conditions at: LTAC (ANKARA/ESENBOGA , TR) observed 1550 UTC 23 August 2019
Temperature: 25.0°C (77°F)
Dewpoint: 12.0°C (54°F) [RH = 44%]
Pressure (altimeter): 30.03 inches Hg (1017.0 mb)
Winds: from the N (10 degrees) at 7 MPH (6 knots; 3.1 m/s)
Visibility: 6 or more miles (10+ km)
Ceiling: at least 12,000 feet AGL
Clouds: scattered clouds at 4000 feet AGL
Weather: no significant weather observed at this time

METAR text: LTAC 231520Z 35014G24KT 9999 SCT040 24/13 Q1017 NOSIG RMK RWY21L 33012KT RWY03L 36009G19KT 320V020 RWY21R 35010KT 320V020
Conditions at: LTAC (ANKARA/ESENBOGA , TR) observed 1520 UTC 23 August 2019
Temperature: 24.0°C (75°F)
Dewpoint: 13.0°C (55°F) [RH = 50%]
Pressure (altimeter): 30.03 inches Hg (1017.0 mb)
Winds: from the N (350 degrees) at 16 MPH (14 knots; 7.2 m/s)
gusting to 28 MPH (24 knots; 12.3 m/s)
Visibility: 6 or more miles (10+ km)
Ceiling: at least 12,000 feet AGL
Clouds: scattered clouds at 4000 feet AGL
Weather: no significant weather observed at this time

METAR text: LTAC 231450Z 02015KT 9999 SCT040 28/10 Q1017 NOSIG RMK RWY21L 01016KT RWY03L 02012KT RWY21R 03017KT
Conditions at: LTAC (ANKARA/ESENBOGA , TR) observed 1450 UTC 23 August 2019
Temperature: 28.0°C (82°F)
Dewpoint: 10.0°C (50°F) [RH = 32%]
Pressure (altimeter): 30.03 inches Hg (1017.0 mb)
Winds: from the NNE (20 degrees) at 17 MPH (15 knots; 7.7 m/s)
Visibility: 6 or more miles (10+ km)
Ceiling: at least 12,000 feet AGL
Clouds: scattered clouds at 4000 feet AGL
Weather: no significant weather observed at this time

METAR text: LTAC 231420Z 05013KT 010V070 9999 SCT040 29/09 Q1017 NOSIG RMK RWY21L 02015KT RWY03L 03014KT 360V070 RWY21R 02016KT
Conditions at: LTAC (ANKARA/ESENBOGA , TR) observed 1420 UTC 23 August 2019
Temperature: 29.0°C (84°F)
Dewpoint: 9.0°C (48°F) [RH = 29%]
Pressure (altimeter): 30.03 inches Hg (1017.0 mb)
Winds: from the NE (50 degrees) at 15 MPH (13 knots; 6.7 m/s)
Visibility: 6 or more miles (10+ km)
Ceiling: at least 12,000 feet AGL
Clouds: scattered clouds at 4000 feet AGL
Weather: no significant weather observed at this time

METAR text: LTAC 231350Z 04012KT 9999 SCT040 29/09 Q1017 NOSIG RMK RWY21L 04012G22KT 010V070 RWY03L 04011KT RWY21R 05013KT
Conditions at: LTAC (ANKARA/ESENBOGA , TR) observed 1350 UTC 23 August 2019
Temperature: 29.0°C (84°F)
Dewpoint: 9.0°C (48°F) [RH = 29%]
Pressure (altimeter): 30.03 inches Hg (1017.0 mb)
Winds: from the NE (40 degrees) at 14 MPH (12 knots; 6.2 m/s)
Visibility: 6 or more miles (10+ km)
Ceiling: at least 12,000 feet AGL
Clouds: scattered clouds at 4000 feet AGL
Weather: no significant weather observed at this time

METAR text: LTAC 231320Z 06013KT 020V090 9999 SCT040 29/10 Q1017 NOSIG RMK RWY21L 04014KT RWY03L 06014KT RWY21R 06015KT
Conditions at: LTAC (ANKARA/ESENBOGA , TR) observed 1320 UTC 23 August 2019
Temperature: 29.0°C (84°F)
Dewpoint: 10.0°C (50°F) [RH = 31%]
Pressure (altimeter): 30.03 inches Hg (1017.0 mb)
Winds: from the ENE (60 degrees) at 15 MPH (13 knots; 6.7 m/s)
Visibility: 6 or more miles (10+ km)
Ceiling: at least 12,000 feet AGL
Clouds: scattered clouds at 4000 feet AGL
Weather: no significant weather observed at this time

METAR text: LTAC 231250Z 02017KT 340V060 9999 SCT040 30/10 Q1016 NOSIG RMK RWY21L 02016KT 350V050 RWY03L 01013KT RWY21R 03016KT
Conditions at: LTAC (ANKARA/ESENBOGA , TR) observed 1250 UTC 23 August 2019
Temperature: 30.0°C (86°F)
Dewpoint: 10.0°C (50°F) [RH = 29%]
Pressure (altimeter): 30.00 inches Hg (1016.0 mb)
Winds: from the NNE (20 degrees) at 20 MPH (17 knots; 8.7 m/s)
Visibility: 6 or more miles (10+ km)
Ceiling: at least 12,000 feet AGL
Clouds: scattered clouds at 4000 feet AGL
Weather: no significant weather observed at this time

METAR text: LTAC 231220Z 02013KT 340V070 9999 SCT040 31/08 Q1016 NOSIG RMK RWY21L 36015KT 340V040 RWY03L 02012KT 340V060 RWY21R 01015KT 330V040
Conditions at: LTAC (ANKARA/ESENBOGA , TR) observed 1220 UTC 23 August 2019
Temperature: 31.0°C (88°F)
Dewpoint: 8.0°C (46°F) [RH = 24%]
Pressure (altimeter): 30.00 inches Hg (1016.0 mb)
Winds: from the NNE (20 degrees) at 15 MPH (13 knots; 6.7 m/s)
Visibility: 6 or more miles (10+ km)
Ceiling: at least 12,000 feet AGL
Clouds: scattered clouds at 4000 feet AGL
Weather: no significant weather observed at this time

METAR text: LTAC 231150Z 01016KT 9999 SCT040 31/09 Q1016 NOSIG RMK RWY21L 35016KT RWY03L 01013KT RWY21R 01015KT
Conditions at: LTAC (ANKARA/ESENBOGA , TR) observed 1150 UTC 23 August 2019
Temperature: 31.0°C (88°F)
Dewpoint: 9.0°C (48°F) [RH = 26%]
Pressure (altimeter): 30.00 inches Hg (1016.0 mb)
Winds: from the N (10 degrees) at 18 MPH (16 knots; 8.2 m/s)
Visibility: 6 or more miles (10+ km)
Ceiling: at least 12,000 feet AGL
Clouds: scattered clouds at 4000 feet AGL
Weather: no significant weather observed at this time

METAR text: LTAC 231120Z 01014KT 340V050 9999 SCT040 31/08 Q1017 NOSIG RMK RWY21L 35013KT 320V020 RWY03L 01011KT 330V050 RWY21R 02013KT 350V060
Conditions at: LTAC (ANKARA/ESENBOGA , TR) observed 1120 UTC 23 August 2019
Temperature: 31.0°C (88°F)
Dewpoint: 8.0°C (46°F) [RH = 24%]
Pressure (altimeter): 30.03 inches Hg (1017.0 mb)
Winds: from the N (10 degrees) at 16 MPH (14 knots; 7.2 m/s)
Visibility: 6 or more miles (10+ km)
Ceiling: at least 12,000 feet AGL
Clouds: scattered clouds at 4000 feet AGL
Weather: no significant weather observed at this time

METAR text: LTAC 231050Z 04012KT 010V070 9999 SCT040 30/09 Q1017 NOSIG RMK RWY21L 02011G21KT 350V050 RWY03L 03012KT 350V060 RWY21R 03012KT 360V060
Conditions at: LTAC (ANKARA/ESENBOGA , TR) observed 1050 UTC 23 August 2019
Temperature: 30.0°C (86°F)
Dewpoint: 9.0°C (48°F) [RH = 27%]
Pressure (altimeter): 30.03 inches Hg (1017.0 mb)
Winds: from the NE (40 degrees) at 14 MPH (12 knots; 6.2 m/s)
Visibility: 6 or more miles (10+ km)
Ceiling: at least 12,000 feet AGL
Clouds: scattered clouds at 4000 feet AGL
Weather: no significant weather observed at this time

METAR text: LTAC 231020Z 04010KT 010V080 9999 FEW040 29/09 Q1017 NOSIG RMK RWY21L 05012KT 360V080 RWY03L 02008KT 330V060 RWY21R 35008KT 300V030
Conditions at: LTAC (ANKARA/ESENBOGA , TR) observed 1020 UTC 23 August 2019
Temperature: 29.0°C (84°F)
Dewpoint: 9.0°C (48°F) [RH = 29%]
Pressure (altimeter): 30.03 inches Hg (1017.0 mb)
Winds: from the NE (40 degrees) at 12 MPH (10 knots; 5.1 m/s)
Visibility: 6 or more miles (10+ km)
Ceiling: at least 12,000 feet AGL
Clouds: few clouds at 4000 feet AGL
Weather: no significant weather observed at this time

METAR text: LTAC 230950Z 04008KT 330V090 9999 FEW040 28/09 Q1017 NOSIG RMK RWY21L 03011KT 330V070 RWY03L 01007KT 300V070 RWY21R 05010KT 360V070
Conditions at: LTAC (ANKARA/ESENBOGA , TR) observed 0950 UTC 23 August 2019
Temperature: 28.0°C (82°F)
Dewpoint: 9.0°C (48°F) [RH = 30%]
Pressure (altimeter): 30.03 inches Hg (1017.0 mb)
Winds: from the NE (40 degrees) at 9 MPH (8 knots; 4.1 m/s)
Visibility: 6 or more miles (10+ km)
Ceiling: at least 12,000 feet AGL
Clouds: few clouds at 4000 feet AGL
Weather: no significant weather observed at this time

METAR text: LTAC 230920Z VRB05G15KT 9999 FEW040 28/09 Q1017 NOSIG RMK RWY21L 03010G20KT 360V070 RWY03L VRB05KT RWY21R 06011KT 020V080
Conditions at: LTAC (ANKARA/ESENBOGA , TR) observed 0920 UTC 23 August 2019
Temperature: 28.0°C (82°F)
Dewpoint: 9.0°C (48°F) [RH = 30%]
Pressure (altimeter): 30.03 inches Hg (1017.0 mb)
Winds: variable direction winds at 6 MPH (5 knots; 2.6 m/s)
gusting to 17 MPH (15 knots; 7.7 m/s)
Visibility: 6 or more miles (10+ km)
Ceiling: at least 12,000 feet AGL
Clouds: few clouds at 4000 feet AGL
Weather: no significant weather observed at this time

METAR text: LTAC 230850Z 03009KT 360V100 9999 FEW040 SCT100 27/09 Q1018 NOSIG RMK RWY21L 33005KT 280V020 RWY03L VRB08KT RWY21R 01006KT 300V070
Conditions at: LTAC (ANKARA/ESENBOGA , TR) observed 0850 UTC 23 August 2019
Temperature: 27.0°C (81°F)
Dewpoint: 9.0°C (48°F) [RH = 32%]
Pressure (altimeter): 30.06 inches Hg (1018.0 mb)
Winds: from the NNE (30 degrees) at 10 MPH (9 knots; 4.6 m/s)
Visibility: 6 or more miles (10+ km)
Ceiling: at least 12,000 feet AGL
Clouds: few clouds at 4000 feet AGL
scattered clouds at 10000 feet AGL
Weather: no significant weather observed at this time

METAR text: LTAC 230820Z 23004KT 140V290 9999 FEW040 26/11 Q1018 NOSIG RMK RWY21L VRB03KT RWY03L 24003KT 190V320 RWY21R 12004KT
Conditions at: LTAC (ANKARA/ESENBOGA , TR) observed 0820 UTC 23 August 2019
Temperature: 26.0°C (79°F)
Dewpoint: 11.0°C (52°F) [RH = 39%]
Pressure (altimeter): 30.06 inches Hg (1018.0 mb)
Winds: from the SW (230 degrees) at 5 MPH (4 knots; 2.1 m/s)
Visibility: 6 or more miles (10+ km)
Ceiling: at least 12,000 feet AGL
Clouds: few clouds at 4000 feet AGL
Weather: no significant weather observed at this time

METAR text: LTAC 230750Z VRB03KT CAVOK 25/11 Q1018 NOSIG RMK RWY21L 33005KT 280V360 RWY03L VRB04KT RWY21R 35003KT 330V040
Conditions at: LTAC (ANKARA/ESENBOGA , TR) observed 0750 UTC 23 August 2019
Temperature: 25.0°C (77°F)
Dewpoint: 11.0°C (52°F) [RH = 41%]
Pressure (altimeter): 30.06 inches Hg (1018.0 mb)
Winds: variable direction winds at 3 MPH (3 knots; 1.5 m/s)
Visibility: 6 or more miles (10+ km)
Ceiling: ceiling and visibility are OK
Clouds: unknown
Weather: no significant weather observed at this time

METAR text: LTAC 230720Z VRB04KT CAVOK 24/10 Q1018 NOSIG RMK RWY21L VRB03KT RWY03L VRB02KT RWY21R 32005KT 280V360
Conditions at: LTAC (ANKARA/ESENBOGA , TR) observed 0720 UTC 23 August 2019
Temperature: 24.0°C (75°F)
Dewpoint: 10.0°C (50°F) [RH = 41%]
Pressure (altimeter): 30.06 inches Hg (1018.0 mb)
Winds: variable direction winds at 5 MPH (4 knots; 2.1 m/s)
Visibility: 6 or more miles (10+ km)
Ceiling: ceiling and visibility are OK
Clouds: unknown
Weather: no significant weather observed at this time

METAR text: LTAC 230650Z 31003KT 230V030 CAVOK 22/11 Q1018 NOSIG RMK RWY21L VRB04KT RWY03L VRB02KT RWY21R 29003KT 240V030
Conditions at: LTAC (ANKARA/ESENBOGA , TR) observed 0650 UTC 23 August 2019
Temperature: 22.0°C (72°F)
Dewpoint: 11.0°C (52°F) [RH = 50%]
Pressure (altimeter): 30.06 inches Hg (1018.0 mb)
Winds: from the NW (310 degrees) at 3 MPH (3 knots; 1.5 m/s)
Visibility: 6 or more miles (10+ km)
Ceiling: ceiling and visibility are OK
Clouds: unknown
Weather: no significant weather observed at this time

METAR text: LTAC 230620Z 22004KT 170V250 CAVOK 21/12 Q1018 NOSIG RMK RWY21L 22005KT 180V290 RWY03L 22003KT 160V280 RWY21R 23004KT
Conditions at: LTAC (ANKARA/ESENBOGA , TR) observed 0620 UTC 23 August 2019
Temperature: 21.0°C (70°F)
Dewpoint: 12.0°C (54°F) [RH = 56%]
Pressure (altimeter): 30.06 inches Hg (1018.0 mb)
Winds: from the SW (220 degrees) at 5 MPH (4 knots; 2.1 m/s)
Visibility: 6 or more miles (10+ km)
Ceiling: ceiling and visibility are OK
Clouds: unknown
Weather: no significant weather observed at this time

METAR text: LTAC 230550Z 00000KT CAVOK 19/11 Q1018 NOSIG RMK RWY21L VRB02KT RWY03L VRB01KT RWY21R 00000KT
Conditions at: LTAC (ANKARA/ESENBOGA , TR) observed 0550 UTC 23 August 2019
Temperature: 19.0°C (66°F)
Dewpoint: 11.0°C (52°F) [RH = 60%]
Pressure (altimeter): 30.06 inches Hg (1018.0 mb)
Winds: calm
Visibility: 6 or more miles (10+ km)
Ceiling: ceiling and visibility are OK
Clouds: unknown
Weather: no significant weather observed at this time

METAR text: LTAC 230520Z VRB02KT CAVOK 16/11 Q1018 NOSIG RMK RWY21L VRB02KT RWY03L VRB02KT RWY21R 00000KT
Conditions at: LTAC (ANKARA/ESENBOGA , TR) observed 0520 UTC 23 August 2019
Temperature: 16.0°C (61°F)
Dewpoint: 11.0°C (52°F) [RH = 72%]
Pressure (altimeter): 30.06 inches Hg (1018.0 mb)
Winds: variable direction winds at 2 MPH (2 knots; 1.0 m/s)
Visibility: 6 or more miles (10+ km)
Ceiling: ceiling and visibility are OK
Clouds: unknown
Weather: no significant weather observed at this time

METAR text: LTAC 230450Z VRB01KT CAVOK 15/11 Q1018 NOSIG RMK RWY21L VRB01KT RWY03L VRB01KT RWY21R 00000KT
Conditions at: LTAC (ANKARA/ESENBOGA , TR) observed 0450 UTC 23 August 2019
Temperature: 15.0°C (59°F)
Dewpoint: 11.0°C (52°F) [RH = 77%]
Pressure (altimeter): 30.06 inches Hg (1018.0 mb)
Winds: variable direction winds at 1 MPH (1 knots; 0.5 m/s)
Visibility: 6 or more miles (10+ km)
Ceiling: ceiling and visibility are OK
Clouds: unknown
Weather: no significant weather observed at this time

METAR text: LTAC 230420Z VRB01KT CAVOK 14/10 Q1019 NOSIG RMK RWY21L VRB02KT RWY03L VRB01KT RWY21R 08002KT
Conditions at: LTAC (ANKARA/ESENBOGA , TR) observed 0420 UTC 23 August 2019
Temperature: 14.0°C (57°F)
Dewpoint: 10.0°C (50°F) [RH = 77%]
Pressure (altimeter): 30.09 inches Hg (1019.0 mb)
Winds: variable direction winds at 1 MPH (1 knots; 0.5 m/s)
Visibility: 6 or more miles (10+ km)
Ceiling: ceiling and visibility are OK
Clouds: unknown
Weather: no significant weather observed at this time

METAR text: LTAC 230350Z VRB01KT CAVOK 13/10 Q1018 NOSIG RMK RWY21L VRB02KT RWY03L VRB01KT RWY21R 18001KT
Conditions at: LTAC (ANKARA/ESENBOGA , TR) observed 0350 UTC 23 August 2019
Temperature: 13.0°C (55°F)
Dewpoint: 10.0°C (50°F) [RH = 82%]
Pressure (altimeter): 30.06 inches Hg (1018.0 mb)
Winds: variable direction winds at 1 MPH (1 knots; 0.5 m/s)
Visibility: 6 or more miles (10+ km)
Ceiling: ceiling and visibility are OK
Clouds: unknown
Weather: no significant weather observed at this time

METAR text: LTAC 230320Z VRB01KT CAVOK 13/09 Q1018 NOSIG RMK RWY21L VRB02KT RWY03L 00000KT RWY21R 00000KT
Conditions at: LTAC (ANKARA/ESENBOGA , TR) observed 0320 UTC 23 August 2019
Temperature: 13.0°C (55°F)
Dewpoint: 9.0°C (48°F) [RH = 77%]
Pressure (altimeter): 30.06 inches Hg (1018.0 mb)
Winds: variable direction winds at 1 MPH (1 knots; 0.5 m/s)
Visibility: 6 or more miles (10+ km)
Ceiling: ceiling and visibility are OK
Clouds: unknown
Weather: no significant weather observed at this time

Forecast for: LTAC (ANKARA/ESENBOGA , TR)
Text: TAF LTAC 241040Z 2412/2512 04012KT 9999 SCT040
Forecast period: 1200 to 1500 UTC 24 August 2019
Forecast type: FROM: standard forecast or significant change
Winds: from the NE (40 degrees) at 14 MPH (12 knots; 6.2 m/s)
Visibility: 6 or more miles 10+ km)
Ceiling: at least 12,000 feet AGL
Clouds: scattered clouds at 4000 feet AGL
Weather: no significant weather forecast for this period
Text: BECMG 2415/2418 VRB02KT CAVOK
Forecast period: 1500 UTC 24 August 2019 to 0700 UTC 25 August 2019
Forecast type: BECOMING: Conditions expected to become as follows by 1800 UTC 24 August 2019
Winds: variable direction winds at 2 MPH (2 knots; 1.0 m/s)
Visibility: 6 or more miles 10+ km)
Ceiling: unknown
Clouds: missing
Weather: NSW  (no significant weather)
Text: BECMG 2507/2509 FEW040
Forecast period: 0700 to 1200 UTC 25 August 2019
Forecast type: BECOMING: Conditions expected to become as follows by 0900 UTC 25 August 2019
Winds: variable direction winds at 2 MPH (2 knots; 1.0 m/s)
Visibility: 6 or more miles 10+ km)
Ceiling: at least 12,000 feet AGL
Clouds: few clouds at 4000 feet AGL
Weather: NSW  (no significant weather)